sensor_id;sensor_type;location;lat;lon;timestamp;temperature;humidity
43808;DHT22;29438;50.664;10.098;2022-09-23T00:00:31;4.20;92.90
43808;DHT22;29438;50.664;10.098;2022-09-23T00:02:56;4.20;92.90
43808;DHT22;29438;50.664;10.098;2022-09-23T00:05:24;4.20;92.90
43808;DHT22;29438;50.664;10.098;2022-09-23T00:07:50;4.10;92.90
43808;DHT22;29438;50.664;10.098;2022-09-23T00:10:16;4.10;92.90
43808;DHT22;29438;50.664;10.098;2022-09-23T00:12:42;4.10;92.90
43808;DHT22;29438;50.664;10.098;2022-09-23T00:15:08;4.10;92.90
43808;DHT22;29438;50.664;10.098;2022-09-23T00:17:35;4.10;92.90
43808;DHT22;29438;50.664;10.098;2022-09-23T00:20:01;4.00;92.90
43808;DHT22;29438;50.664;10.098;2022-09-23T00:22:26;4.00;92.90
43808;DHT22;29438;50.664;10.098;2022-09-23T00:24:52;4.00;92.90
43808;DHT22;29438;50.664;10.098;2022-09-23T00:27:17;4.00;92.90
43808;DHT22;29438;50.664;10.098;2022-09-23T00:29:46;3.90;92.90
43808;DHT22;29438;50.664;10.098;2022-09-23T00:32:11;3.90;92.90
43808;DHT22;29438;50.664;10.098;2022-09-23T00:34:37;3.90;92.90
43808;DHT22;29438;50.664;10.098;2022-09-23T00:37:02;3.90;93.00
43808;DHT22;29438;50.664;10.098;2022-09-23T00:39:28;3.90;93.00
43808;DHT22;29438;50.664;10.098;2022-09-23T00:41:53;3.80;93.00
43808;DHT22;29438;50.664;10.098;2022-09-23T00:44:59;3.80;93.00
43808;DHT22;29438;50.664;10.098;2022-09-23T00:47:51;3.80;93.00
43808;DHT22;29438;50.664;10.098;2022-09-23T00:50:33;3.80;93.10
43808;DHT22;29438;50.664;10.098;2022-09-23T00:53:03;3.80;93.10
43808;DHT22;29438;50.664;10.098;2022-09-23T00:55:36;3.70;93.00
43808;DHT22;29438;50.664;10.098;2022-09-23T00:58:06;3.70;93.00
43808;DHT22;29438;50.664;10.098;2022-09-23T01:00:33;3.70;93.00
43808;DHT22;29438;50.664;10.098;2022-09-23T01:03:00;3.70;93.10
43808;DHT22;29438;50.664;10.098;2022-09-23T01:05:26;3.60;93.10
43808;DHT22;29438;50.664;10.098;2022-09-23T01:07:53;3.60;93.10
43808;DHT22;29438;50.664;10.098;2022-09-23T01:10:22;3.60;93.10
43808;DHT22;29438;50.664;10.098;2022-09-23T01:13:27;3.60;93.10
43808;DHT22;29438;50.664;10.098;2022-09-23T01:16:28;3.60;93.10
43808;DHT22;29438;50.664;10.098;2022-09-23T01:19:32;3.60;93.10
43808;DHT22;29438;50.664;10.098;2022-09-23T01:22:08;3.60;93.10
43808;DHT22;29438;50.664;10.098;2022-09-23T01:33:20;3.50;93.20
43808;DHT22;29438;50.664;10.098;2022-09-23T01:36:06;3.50;93.20
43808;DHT22;29438;50.664;10.098;2022-09-23T01:38:54;3.50;93.30
43808;DHT22;29438;50.664;10.098;2022-09-23T01:41:39;3.40;93.30
43808;DHT22;29438;50.664;10.098;2022-09-23T01:44:10;3.40;93.20
43808;DHT22;29438;50.664;10.098;2022-09-23T01:46:59;3.40;93.20
43808;DHT22;29438;50.664;10.098;2022-09-23T01:52:16;3.30;93.30
43808;DHT22;29438;50.664;10.098;2022-09-23T01:55:15;3.30;93.30
43808;DHT22;29438;50.664;10.098;2022-09-23T01:57:49;3.40;93.30
43808;DHT22;29438;50.664;10.098;2022-09-23T02:00:18;3.40;93.30
43808;DHT22;29438;50.664;10.098;2022-09-23T02:03:16;3.40;93.30
43808;DHT22;29438;50.664;10.098;2022-09-23T02:05:47;3.30;93.30
43808;DHT22;29438;50.664;10.098;2022-09-23T02:11:22;3.40;93.40
43808;DHT22;29438;50.664;10.098;2022-09-23T02:13:53;3.40;93.40
43808;DHT22;29438;50.664;10.098;2022-09-23T02:16:32;3.40;93.40
43808;DHT22;29438;50.664;10.098;2022-09-23T02:21:39;3.40;93.40
43808;DHT22;29438;50.664;10.098;2022-09-23T02:26:49;3.30;93.50
43808;DHT22;29438;50.664;10.098;2022-09-23T02:29:32;3.20;93.50
43808;DHT22;29438;50.664;10.098;2022-09-23T02:32:17;3.20;93.50
43808;DHT22;29438;50.664;10.098;2022-09-23T02:34:50;3.30;93.50
43808;DHT22;29438;50.664;10.098;2022-09-23T02:37:38;3.30;93.50
43808;DHT22;29438;50.664;10.098;2022-09-23T02:42:46;3.20;93.60
43808;DHT22;29438;50.664;10.098;2022-09-23T02:45:14;3.20;93.60
43808;DHT22;29438;50.664;10.098;2022-09-23T02:47:42;3.20;93.60
43808;DHT22;29438;50.664;10.098;2022-09-23T02:50:08;3.20;93.60
43808;DHT22;29438;50.664;10.098;2022-09-23T02:52:34;3.10;93.60
43808;DHT22;29438;50.664;10.098;2022-09-23T02:55:02;3.10;93.50
43808;DHT22;29438;50.664;10.098;2022-09-23T02:57:28;3.10;93.50
43808;DHT22;29438;50.664;10.098;2022-09-23T02:59:54;3.00;93.60
43808;DHT22;29438;50.664;10.098;2022-09-23T03:02:55;3.10;93.60
43808;DHT22;29438;50.664;10.098;2022-09-23T03:05:27;3.00;93.60
43808;DHT22;29438;50.664;10.098;2022-09-23T03:08:18;3.10;93.60
43808;DHT22;29438;50.664;10.098;2022-09-23T03:10:51;3.10;93.60
43808;DHT22;29438;50.664;10.098;2022-09-23T03:16:14;3.10;93.70
43808;DHT22;29438;50.664;10.098;2022-09-23T03:18:55;3.10;93.70
43808;DHT22;29438;50.664;10.098;2022-09-23T03:21:32;3.10;93.70
43808;DHT22;29438;50.664;10.098;2022-09-23T03:24:04;3.00;93.70
43808;DHT22;29438;50.664;10.098;2022-09-23T03:26:34;3.00;93.70
43808;DHT22;29438;50.664;10.098;2022-09-23T03:29:06;3.00;93.70
43808;DHT22;29438;50.664;10.098;2022-09-23T03:31:35;3.00;93.70
43808;DHT22;29438;50.664;10.098;2022-09-23T03:34:06;3.00;93.80
43808;DHT22;29438;50.664;10.098;2022-09-23T03:36:44;3.00;93.80
43808;DHT22;29438;50.664;10.098;2022-09-23T03:39:38;3.00;93.80
43808;DHT22;29438;50.664;10.098;2022-09-23T03:42:18;3.00;93.80
43808;DHT22;29438;50.664;10.098;2022-09-23T03:44:47;3.00;93.80
43808;DHT22;29438;50.664;10.098;2022-09-23T03:47:19;3.00;93.80
43808;DHT22;29438;50.664;10.098;2022-09-23T03:49:46;3.00;93.80
43808;DHT22;29438;50.664;10.098;2022-09-23T03:52:20;3.00;93.90
43808;DHT22;29438;50.664;10.098;2022-09-23T03:54:46;3.00;93.80
43808;DHT22;29438;50.664;10.098;2022-09-23T03:57:12;3.00;93.90
43808;DHT22;29438;50.664;10.098;2022-09-23T03:59:38;3.00;93.90
43808;DHT22;29438;50.664;10.098;2022-09-23T04:02:04;2.90;93.90
43808;DHT22;29438;50.664;10.098;2022-09-23T04:04:32;3.00;93.90
43808;DHT22;29438;50.664;10.098;2022-09-23T04:07:00;3.00;93.90
43808;DHT22;29438;50.664;10.098;2022-09-23T04:09:26;3.00;93.90
43808;DHT22;29438;50.664;10.098;2022-09-23T04:11:52;2.90;93.90
43808;DHT22;29438;50.664;10.098;2022-09-23T04:14:19;2.90;93.90
43808;DHT22;29438;50.664;10.098;2022-09-23T04:16:46;3.00;94.00
43808;DHT22;29438;50.664;10.098;2022-09-23T04:19:13;3.00;94.00
43808;DHT22;29438;50.664;10.098;2022-09-23T04:21:39;3.00;94.00
43808;DHT22;29438;50.664;10.098;2022-09-23T04:24:06;2.90;94.00
43808;DHT22;29438;50.664;10.098;2022-09-23T04:26:32;2.90;94.00
43808;DHT22;29438;50.664;10.098;2022-09-23T04:28:58;2.90;94.00
43808;DHT22;29438;50.664;10.098;2022-09-23T04:31:24;2.90;94.00
43808;DHT22;29438;50.664;10.098;2022-09-23T04:33:53;2.90;94.00
43808;DHT22;29438;50.664;10.098;2022-09-23T04:36:18;2.80;94.00
43808;DHT22;29438;50.664;10.098;2022-09-23T04:38:45;2.80;94.00
43808;DHT22;29438;50.664;10.098;2022-09-23T04:41:11;2.80;94.00
43808;DHT22;29438;50.664;10.098;2022-09-23T04:43:36;2.80;94.00
43808;DHT22;29438;50.664;10.098;2022-09-23T04:46:04;2.80;94.00
43808;DHT22;29438;50.664;10.098;2022-09-23T04:48:30;2.80;94.10
43808;DHT22;29438;50.664;10.098;2022-09-23T04:51:21;2.80;94.10
43808;DHT22;29438;50.664;10.098;2022-09-23T04:53:48;2.80;94.10
43808;DHT22;29438;50.664;10.098;2022-09-23T04:56:16;2.80;94.10
43808;DHT22;29438;50.664;10.098;2022-09-23T04:58:43;2.80;94.20
43808;DHT22;29438;50.664;10.098;2022-09-23T05:01:18;2.80;94.10
43808;DHT22;29438;50.664;10.098;2022-09-23T05:03:45;2.80;94.20
43808;DHT22;29438;50.664;10.098;2022-09-23T05:06:12;2.80;94.20
43808;DHT22;29438;50.664;10.098;2022-09-23T05:08:40;2.80;94.20
43808;DHT22;29438;50.664;10.098;2022-09-23T05:11:06;2.80;94.20
43808;DHT22;29438;50.664;10.098;2022-09-23T05:13:32;2.90;94.20
43808;DHT22;29438;50.664;10.098;2022-09-23T05:16:09;2.80;94.30
43808;DHT22;29438;50.664;10.098;2022-09-23T05:18:37;2.80;94.30
43808;DHT22;29438;50.664;10.098;2022-09-23T05:21:06;2.90;94.30
43808;DHT22;29438;50.664;10.098;2022-09-23T05:23:31;3.00;94.40
43808;DHT22;29438;50.664;10.098;2022-09-23T05:25:59;3.00;94.40
43808;DHT22;29438;50.664;10.098;2022-09-23T05:28:26;3.10;94.40
43808;DHT22;29438;50.664;10.098;2022-09-23T05:31:09;3.10;94.40
43808;DHT22;29438;50.664;10.098;2022-09-23T05:33:40;3.20;94.50
43808;DHT22;29438;50.664;10.098;2022-09-23T05:36:06;3.30;94.60
43808;DHT22;29438;50.664;10.098;2022-09-23T05:38:32;3.50;94.60
43808;DHT22;29438;50.664;10.098;2022-09-23T05:41:00;3.60;94.70
43808;DHT22;29438;50.664;10.098;2022-09-23T05:43:26;3.80;94.70
43808;DHT22;29438;50.664;10.098;2022-09-23T05:46:00;3.90;94.70
43808;DHT22;29438;50.664;10.098;2022-09-23T05:48:29;4.00;94.70
43808;DHT22;29438;50.664;10.098;2022-09-23T05:50:55;4.20;94.70
43808;DHT22;29438;50.664;10.098;2022-09-23T05:53:21;4.30;94.60
43808;DHT22;29438;50.664;10.098;2022-09-23T05:55:46;4.40;94.60
43808;DHT22;29438;50.664;10.098;2022-09-23T05:58:12;4.50;94.60
43808;DHT22;29438;50.664;10.098;2022-09-23T06:00:39;4.70;94.60
43808;DHT22;29438;50.664;10.098;2022-09-23T06:03:06;4.90;94.50
43808;DHT22;29438;50.664;10.098;2022-09-23T06:05:34;5.00;94.40
43808;DHT22;29438;50.664;10.098;2022-09-23T06:08:00;5.20;94.20
43808;DHT22;29438;50.664;10.098;2022-09-23T06:10:25;5.40;94.10
43808;DHT22;29438;50.664;10.098;2022-09-23T06:12:51;5.70;93.90
43808;DHT22;29438;50.664;10.098;2022-09-23T06:15:17;5.80;93.60
43808;DHT22;29438;50.664;10.098;2022-09-23T06:17:42;6.00;93.20
43808;DHT22;29438;50.664;10.098;2022-09-23T06:20:08;6.20;93.10
43808;DHT22;29438;50.664;10.098;2022-09-23T06:22:34;6.30;92.40
43808;DHT22;29438;50.664;10.098;2022-09-23T06:24:59;6.50;91.70
43808;DHT22;29438;50.664;10.098;2022-09-23T06:27:25;6.70;91.30
43808;DHT22;29438;50.664;10.098;2022-09-23T06:29:50;6.90;90.40
43808;DHT22;29438;50.664;10.098;2022-09-23T06:32:17;7.00;89.50
43808;DHT22;29438;50.664;10.098;2022-09-23T06:34:42;7.10;88.30
43808;DHT22;29438;50.664;10.098;2022-09-23T06:37:10;7.10;87.70
43808;DHT22;29438;50.664;10.098;2022-09-23T06:39:36;7.20;87.40
43808;DHT22;29438;50.664;10.098;2022-09-23T06:42:01;7.10;87.10
43808;DHT22;29438;50.664;10.098;2022-09-23T06:44:27;7.20;87.70
43808;DHT22;29438;50.664;10.098;2022-09-23T06:46:53;7.60;87.80
43808;DHT22;29438;50.664;10.098;2022-09-23T06:49:18;8.00;85.20
43808;DHT22;29438;50.664;10.098;2022-09-23T06:51:47;8.30;84.00
43808;DHT22;29438;50.664;10.098;2022-09-23T06:54:12;8.30;83.50
43808;DHT22;29438;50.664;10.098;2022-09-23T06:56:38;8.20;82.90
43808;DHT22;29438;50.664;10.098;2022-09-23T06:59:04;8.20;83.50
43808;DHT22;29438;50.664;10.098;2022-09-23T07:01:29;8.20;83.40
43808;DHT22;29438;50.664;10.098;2022-09-23T07:03:55;8.20;83.60
43808;DHT22;29438;50.664;10.098;2022-09-23T07:06:20;8.30;83.30
43808;DHT22;29438;50.664;10.098;2022-09-23T07:08:46;8.40;83.40
43808;DHT22;29438;50.664;10.098;2022-09-23T07:11:12;8.70;82.30
43808;DHT22;29438;50.664;10.098;2022-09-23T07:13:39;9.10;82.60
43808;DHT22;29438;50.664;10.098;2022-09-23T07:16:05;9.40;81.50
43808;DHT22;29438;50.664;10.098;2022-09-23T07:18:32;9.60;79.50
43808;DHT22;29438;50.664;10.098;2022-09-23T07:21:08;10.00;79.00
43808;DHT22;29438;50.664;10.098;2022-09-23T07:23:33;11.10;76.90
43808;DHT22;29438;50.664;10.098;2022-09-23T07:25:59;11.30;74.10
43808;DHT22;29438;50.664;10.098;2022-09-23T07:28:24;11.30;73.80
43808;DHT22;29438;50.664;10.098;2022-09-23T07:30:53;11.50;73.10
43808;DHT22;29438;50.664;10.098;2022-09-23T07:33:20;11.30;72.60
43808;DHT22;29438;50.664;10.098;2022-09-23T07:35:45;11.20;73.40
43808;DHT22;29438;50.664;10.098;2022-09-23T07:38:11;10.90;73.70
43808;DHT22;29438;50.664;10.098;2022-09-23T07:40:37;10.80;74.90
43808;DHT22;29438;50.664;10.098;2022-09-23T07:43:07;10.80;74.50
43808;DHT22;29438;50.664;10.098;2022-09-23T07:45:34;10.60;74.50
43808;DHT22;29438;50.664;10.098;2022-09-23T07:48:00;10.60;75.60
43808;DHT22;29438;50.664;10.098;2022-09-23T07:50:27;10.50;75.90
43808;DHT22;29438;50.664;10.098;2022-09-23T07:52:52;10.70;76.50
43808;DHT22;29438;50.664;10.098;2022-09-23T07:55:18;10.80;75.70
43808;DHT22;29438;50.664;10.098;2022-09-23T07:57:44;11.00;76.10
43808;DHT22;29438;50.664;10.098;2022-09-23T08:00:11;11.30;75.10
43808;DHT22;29438;50.664;10.098;2022-09-23T08:02:38;11.50;74.30
43808;DHT22;29438;50.664;10.098;2022-09-23T08:05:04;11.60;73.70
43808;DHT22;29438;50.664;10.098;2022-09-23T08:07:30;11.80;74.30
43808;DHT22;29438;50.664;10.098;2022-09-23T08:09:59;12.00;74.10
43808;DHT22;29438;50.664;10.098;2022-09-23T08:12:25;11.90;72.70
43808;DHT22;29438;50.664;10.098;2022-09-23T08:14:50;11.90;73.20
43808;DHT22;29438;50.664;10.098;2022-09-23T08:17:16;11.90;72.50
43808;DHT22;29438;50.664;10.098;2022-09-23T08:19:42;11.80;72.50
43808;DHT22;29438;50.664;10.098;2022-09-23T08:22:07;11.90;72.80
43808;DHT22;29438;50.664;10.098;2022-09-23T08:24:33;11.80;71.90
43808;DHT22;29438;50.664;10.098;2022-09-23T08:26:58;11.90;73.30
43808;DHT22;29438;50.664;10.098;2022-09-23T08:29:24;12.20;72.20
43808;DHT22;29438;50.664;10.098;2022-09-23T08:31:51;12.20;73.00
43808;DHT22;29438;50.664;10.098;2022-09-23T08:34:18;12.40;72.30
43808;DHT22;29438;50.664;10.098;2022-09-23T08:36:45;12.70;70.90
43808;DHT22;29438;50.664;10.098;2022-09-23T08:39:15;13.30;69.30
43808;DHT22;29438;50.664;10.098;2022-09-23T08:42:00;14.00;67.70
43808;DHT22;29438;50.664;10.098;2022-09-23T08:47:23;15.10;64.30
43808;DHT22;29438;50.664;10.098;2022-09-23T08:50:29;15.70;62.90
43808;DHT22;29438;50.664;10.098;2022-09-23T08:52:56;15.70;59.50
43808;DHT22;29438;50.664;10.098;2022-09-23T08:55:36;16.20;60.60
43808;DHT22;29438;50.664;10.098;2022-09-23T09:01:15;16.30;58.90
43808;DHT22;29438;50.664;10.098;2022-09-23T09:03:55;16.80;59.90
43808;DHT22;29438;50.664;10.098;2022-09-23T09:06:35;16.60;57.00
43808;DHT22;29438;50.664;10.098;2022-09-23T09:09:05;16.50;57.30
43808;DHT22;29438;50.664;10.098;2022-09-23T09:11:41;16.40;57.70
43808;DHT22;29438;50.664;10.098;2022-09-23T09:14:30;16.50;57.00
43808;DHT22;29438;50.664;10.098;2022-09-23T09:17:02;16.50;55.80
43808;DHT22;29438;50.664;10.098;2022-09-23T09:19:50;16.10;57.20
43808;DHT22;29438;50.664;10.098;2022-09-23T09:22:20;15.90;57.20
43808;DHT22;29438;50.664;10.098;2022-09-23T09:24:49;16.10;57.10
43808;DHT22;29438;50.664;10.098;2022-09-23T09:27:15;15.80;58.70
43808;DHT22;29438;50.664;10.098;2022-09-23T09:29:44;16.20;58.40
43808;DHT22;29438;50.664;10.098;2022-09-23T09:34:56;16.20;57.90
43808;DHT22;29438;50.664;10.098;2022-09-23T09:39:54;16.70;57.60
43808;DHT22;29438;50.664;10.098;2022-09-23T09:42:35;17.00;55.10
43808;DHT22;29438;50.664;10.098;2022-09-23T09:45:17;17.00;53.40
43808;DHT22;29438;50.664;10.098;2022-09-23T09:47:55;17.40;57.10
43808;DHT22;29438;50.664;10.098;2022-09-23T09:50:50;16.70;54.80
43808;DHT22;29438;50.664;10.098;2022-09-23T09:53:25;16.70;53.10
43808;DHT22;29438;50.664;10.098;2022-09-23T09:56:06;16.90;54.50
43808;DHT22;29438;50.664;10.098;2022-09-23T09:58:49;17.10;55.90
43808;DHT22;29438;50.664;10.098;2022-09-23T10:01:24;17.10;53.60
43808;DHT22;29438;50.664;10.098;2022-09-23T10:04:04;17.00;52.00
43808;DHT22;29438;50.664;10.098;2022-09-23T10:06:33;17.40;52.90
43808;DHT22;29438;50.664;10.098;2022-09-23T10:09:09;17.60;51.40
43808;DHT22;29438;50.664;10.098;2022-09-23T10:11:35;17.50;51.80
43808;DHT22;29438;50.664;10.098;2022-09-23T10:16:37;17.20;53.70
43808;DHT22;29438;50.664;10.098;2022-09-23T10:19:13;17.50;52.00
43808;DHT22;29438;50.664;10.098;2022-09-23T10:21:41;17.90;50.50
43808;DHT22;29438;50.664;10.098;2022-09-23T10:24:07;17.50;52.10
43808;DHT22;29438;50.664;10.098;2022-09-23T10:26:49;16.70;52.20
43808;DHT22;29438;50.664;10.098;2022-09-23T10:29:39;17.20;51.00
43808;DHT22;29438;50.664;10.098;2022-09-23T10:32:33;17.60;51.50
43808;DHT22;29438;50.664;10.098;2022-09-23T10:37:46;17.50;49.60
43808;DHT22;29438;50.664;10.098;2022-09-23T10:40:16;17.40;51.90
43808;DHT22;29438;50.664;10.098;2022-09-23T10:46:27;17.70;49.30
43808;DHT22;29438;50.664;10.098;2022-09-23T10:49:33;17.40;49.20
43808;DHT22;29438;50.664;10.098;2022-09-23T10:55:15;17.00;51.40
43808;DHT22;29438;50.664;10.098;2022-09-23T11:03:18;16.40;54.90
43808;DHT22;29438;50.664;10.098;2022-09-23T11:05:50;16.60;52.60
43808;DHT22;29438;50.664;10.098;2022-09-23T11:14:47;16.60;52.30
43808;DHT22;29438;50.664;10.098;2022-09-23T11:23:24;16.80;52.30
43808;DHT22;29438;50.664;10.098;2022-09-23T11:29:02;16.80;53.60
43808;DHT22;29438;50.664;10.098;2022-09-23T11:31:40;16.60;51.20
43808;DHT22;29438;50.664;10.098;2022-09-23T11:37:17;16.80;51.90
43808;DHT22;29438;50.664;10.098;2022-09-23T11:42:54;16.80;51.90
43808;DHT22;29438;50.664;10.098;2022-09-23T11:45:26;17.10;49.50
43808;DHT22;29438;50.664;10.098;2022-09-23T11:47:58;17.20;52.80
43808;DHT22;29438;50.664;10.098;2022-09-23T11:50:35;16.90;50.70
43808;DHT22;29438;50.664;10.098;2022-09-23T11:53:21;16.90;50.60
43808;DHT22;29438;50.664;10.098;2022-09-23T11:55:53;16.90;50.20
43808;DHT22;29438;50.664;10.098;2022-09-23T11:58:25;16.90;51.20
43808;DHT22;29438;50.664;10.098;2022-09-23T12:01:04;17.00;49.70
43808;DHT22;29438;50.664;10.098;2022-09-23T12:06:09;17.20;51.50
43808;DHT22;29438;50.664;10.098;2022-09-23T12:08:37;17.10;48.50
43808;DHT22;29438;50.664;10.098;2022-09-23T12:11:25;17.00;50.60
43808;DHT22;29438;50.664;10.098;2022-09-23T12:14:12;17.20;50.70
43808;DHT22;29438;50.664;10.098;2022-09-23T12:19:48;16.50;50.80
43808;DHT22;29438;50.664;10.098;2022-09-23T12:22:43;16.70;47.80
43808;DHT22;29438;50.664;10.098;2022-09-23T12:28:02;17.20;50.80
43808;DHT22;29438;50.664;10.098;2022-09-23T12:30:30;17.00;48.40
43808;DHT22;29438;50.664;10.098;2022-09-23T12:33:27;16.90;49.40
43808;DHT22;29438;50.664;10.098;2022-09-23T12:36:02;16.70;50.50
43808;DHT22;29438;50.664;10.098;2022-09-23T12:38:37;17.20;54.60
43808;DHT22;29438;50.664;10.098;2022-09-23T12:41:29;17.10;47.60
43808;DHT22;29438;50.664;10.098;2022-09-23T12:46:36;17.10;50.30
43808;DHT22;29438;50.664;10.098;2022-09-23T12:49:03;17.20;48.70
43808;DHT22;29438;50.664;10.098;2022-09-23T12:51:33;17.00;48.60
43808;DHT22;29438;50.664;10.098;2022-09-23T13:01:42;17.00;50.70
43808;DHT22;29438;50.664;10.098;2022-09-23T13:04:31;17.10;50.60
43808;DHT22;29438;50.664;10.098;2022-09-23T13:07:24;17.20;47.80
43808;DHT22;29438;50.664;10.098;2022-09-23T13:09:55;17.50;49.80
43808;DHT22;29438;50.664;10.098;2022-09-23T13:12:29;17.30;50.20
43808;DHT22;29438;50.664;10.098;2022-09-23T13:14:58;17.30;49.20
43808;DHT22;29438;50.664;10.098;2022-09-23T13:17:37;17.20;47.70
43808;DHT22;29438;50.664;10.098;2022-09-23T13:20:14;17.00;49.50
43808;DHT22;29438;50.664;10.098;2022-09-23T13:25:27;16.90;48.80
43808;DHT22;29438;50.664;10.098;2022-09-23T13:27:54;16.90;50.20
43808;DHT22;29438;50.664;10.098;2022-09-23T13:30:23;17.00;50.80
43808;DHT22;29438;50.664;10.098;2022-09-23T13:33:00;17.00;51.20
43808;DHT22;29438;50.664;10.098;2022-09-23T13:35:38;17.20;52.90
43808;DHT22;29438;50.664;10.098;2022-09-23T13:38:19;17.00;49.40
43808;DHT22;29438;50.664;10.098;2022-09-23T13:40:45;16.70;49.40
43808;DHT22;29438;50.664;10.098;2022-09-23T13:43:22;16.70;50.30
43808;DHT22;29438;50.664;10.098;2022-09-23T13:45:49;16.70;51.30
43808;DHT22;29438;50.664;10.098;2022-09-23T13:48:15;16.80;51.10
43808;DHT22;29438;50.664;10.098;2022-09-23T13:50:47;16.80;51.50
43808;DHT22;29438;50.664;10.098;2022-09-23T13:53:26;16.70;50.70
43808;DHT22;29438;50.664;10.098;2022-09-23T13:56:18;16.60;50.20
43808;DHT22;29438;50.664;10.098;2022-09-23T13:58:44;16.20;51.10
43808;DHT22;29438;50.664;10.098;2022-09-23T14:01:30;16.30;52.90
43808;DHT22;29438;50.664;10.098;2022-09-23T14:03:57;16.50;52.70
43808;DHT22;29438;50.664;10.098;2022-09-23T14:06:24;16.50;51.00
43808;DHT22;29438;50.664;10.098;2022-09-23T14:08:51;16.40;52.40
43808;DHT22;29438;50.664;10.098;2022-09-23T14:11:27;16.40;52.20
43808;DHT22;29438;50.664;10.098;2022-09-23T14:13:54;16.70;52.20
43808;DHT22;29438;50.664;10.098;2022-09-23T14:16:23;16.90;52.80
43808;DHT22;29438;50.664;10.098;2022-09-23T14:18:55;17.00;51.60
43808;DHT22;29438;50.664;10.098;2022-09-23T14:21:32;17.10;52.90
43808;DHT22;29438;50.664;10.098;2022-09-23T14:24:20;17.20;51.70
43808;DHT22;29438;50.664;10.098;2022-09-23T14:29:36;17.30;49.70
43808;DHT22;29438;50.664;10.098;2022-09-23T14:32:10;17.20;49.00
43808;DHT22;29438;50.664;10.098;2022-09-23T14:34:44;17.20;50.80
43808;DHT22;29438;50.664;10.098;2022-09-23T14:37:32;17.10;50.10
43808;DHT22;29438;50.664;10.098;2022-09-23T14:40:28;17.00;49.60
43808;DHT22;29438;50.664;10.098;2022-09-23T14:45:23;16.70;50.50
43808;DHT22;29438;50.664;10.098;2022-09-23T14:48:03;16.60;51.70
43808;DHT22;29438;50.664;10.098;2022-09-23T14:50:30;16.50;50.80
43808;DHT22;29438;50.664;10.098;2022-09-23T14:55:46;16.20;52.70
43808;DHT22;29438;50.664;10.098;2022-09-23T14:58:15;16.10;53.40
43808;DHT22;29438;50.664;10.098;2022-09-23T15:00:54;16.20;54.20
43808;DHT22;29438;50.664;10.098;2022-09-23T15:03:22;16.00;52.60
43808;DHT22;29438;50.664;10.098;2022-09-23T15:05:49;15.80;53.90
43808;DHT22;29438;50.664;10.098;2022-09-23T15:08:23;15.80;54.90
43808;DHT22;29438;50.664;10.098;2022-09-23T15:10:50;15.70;54.80
43808;DHT22;29438;50.664;10.098;2022-09-23T15:13:22;15.70;56.40
43808;DHT22;29438;50.664;10.098;2022-09-23T15:15:53;15.60;54.90
43808;DHT22;29438;50.664;10.098;2022-09-23T15:18:23;15.60;55.10
43808;DHT22;29438;50.664;10.098;2022-09-23T15:21:12;15.60;56.00
43808;DHT22;29438;50.664;10.098;2022-09-23T15:23:47;15.60;55.00
43808;DHT22;29438;50.664;10.098;2022-09-23T15:26:18;15.60;55.10
43808;DHT22;29438;50.664;10.098;2022-09-23T15:28:44;15.70;54.80
43808;DHT22;29438;50.664;10.098;2022-09-23T15:31:14;15.70;56.60
43808;DHT22;29438;50.664;10.098;2022-09-23T15:33:44;15.70;55.70
43808;DHT22;29438;50.664;10.098;2022-09-23T15:36:26;15.70;56.70
43808;DHT22;29438;50.664;10.098;2022-09-23T15:38:53;15.70;57.60
43808;DHT22;29438;50.664;10.098;2022-09-23T15:41:21;15.60;56.30
43808;DHT22;29438;50.664;10.098;2022-09-23T15:43:49;15.60;55.50
43808;DHT22;29438;50.664;10.098;2022-09-23T15:46:26;15.60;55.60
43808;DHT22;29438;50.664;10.098;2022-09-23T15:51:22;15.50;57.50
43808;DHT22;29438;50.664;10.098;2022-09-23T15:53:48;15.40;57.50
43808;DHT22;29438;50.664;10.098;2022-09-23T15:56:15;15.30;58.30
43808;DHT22;29438;50.664;10.098;2022-09-23T15:58:40;15.30;58.50
43808;DHT22;29438;50.664;10.098;2022-09-23T16:01:06;15.20;59.50
43808;DHT22;29438;50.664;10.098;2022-09-23T16:03:37;15.10;56.90
43808;DHT22;29438;50.664;10.098;2022-09-23T16:06:02;15.00;57.10
43808;DHT22;29438;50.664;10.098;2022-09-23T16:08:30;15.00;57.90
43808;DHT22;29438;50.664;10.098;2022-09-23T16:10:57;14.90;58.70
43808;DHT22;29438;50.664;10.098;2022-09-23T16:13:22;14.80;58.90
43808;DHT22;29438;50.664;10.098;2022-09-23T16:15:48;14.70;59.80
43808;DHT22;29438;50.664;10.098;2022-09-23T16:18:13;14.70;61.70
43808;DHT22;29438;50.664;10.098;2022-09-23T16:20:43;14.50;63.60
43808;DHT22;29438;50.664;10.098;2022-09-23T16:23:28;14.40;63.20
43808;DHT22;29438;50.664;10.098;2022-09-23T16:28:30;14.20;66.50
43808;DHT22;29438;50.664;10.098;2022-09-23T16:30:55;14.00;68.10
43808;DHT22;29438;50.664;10.098;2022-09-23T16:33:22;13.80;69.50
43808;DHT22;29438;50.664;10.098;2022-09-23T16:35:48;13.60;69.50
43808;DHT22;29438;50.664;10.098;2022-09-23T16:38:14;13.50;69.90
43808;DHT22;29438;50.664;10.098;2022-09-23T16:40:40;13.40;69.20
43808;DHT22;29438;50.664;10.098;2022-09-23T16:43:05;13.20;70.50
43808;DHT22;29438;50.664;10.098;2022-09-23T16:45:32;13.10;71.20
43808;DHT22;29438;50.664;10.098;2022-09-23T16:47:57;12.90;71.70
43808;DHT22;29438;50.664;10.098;2022-09-23T16:50:23;12.70;73.30
43808;DHT22;29438;50.664;10.098;2022-09-23T16:52:52;12.60;73.60
43808;DHT22;29438;50.664;10.098;2022-09-23T16:55:20;12.40;73.60
43808;DHT22;29438;50.664;10.098;2022-09-23T16:57:46;12.20;74.70
43808;DHT22;29438;50.664;10.098;2022-09-23T17:00:14;12.20;75.70
43808;DHT22;29438;50.664;10.098;2022-09-23T17:02:59;12.00;76.40
43808;DHT22;29438;50.664;10.098;2022-09-23T17:05:43;11.80;77.00
43808;DHT22;29438;50.664;10.098;2022-09-23T17:08:13;11.70;77.90
43808;DHT22;29438;50.664;10.098;2022-09-23T17:10:40;11.60;78.90
43808;DHT22;29438;50.664;10.098;2022-09-23T17:13:06;11.50;79.20
43808;DHT22;29438;50.664;10.098;2022-09-23T17:15:38;11.30;78.80
43808;DHT22;29438;50.664;10.098;2022-09-23T17:18:05;11.20;78.80
43808;DHT22;29438;50.664;10.098;2022-09-23T17:20:31;11.00;79.50
43808;DHT22;29438;50.664;10.098;2022-09-23T17:22:57;11.00;79.80
43808;DHT22;29438;50.664;10.098;2022-09-23T17:25:23;10.90;79.70
43808;DHT22;29438;50.664;10.098;2022-09-23T17:27:49;10.80;79.70
43808;DHT22;29438;50.664;10.098;2022-09-23T17:30:14;10.70;79.90
43808;DHT22;29438;50.664;10.098;2022-09-23T17:32:40;10.50;80.50
43808;DHT22;29438;50.664;10.098;2022-09-23T17:35:06;10.40;80.40
43808;DHT22;29438;50.664;10.098;2022-09-23T17:37:32;10.30;80.50
43808;DHT22;29438;50.664;10.098;2022-09-23T17:39:58;10.20;81.10